createdAt,value
2018-11-06T00:01:48.325Z,78.42
2018-11-06T00:04:16.675Z,78.37
2018-11-06T00:06:45.073Z,78.19
2018-11-06T00:09:13.468Z,78.44
2018-11-06T00:11:41.762Z,78.30
2018-11-06T00:14:10.091Z,78.06
2018-11-06T00:16:38.403Z,77.93
2018-11-06T00:19:06.727Z,78.51
2018-11-06T00:21:35.164Z,78.58
2018-11-06T00:24:03.511Z,78.83
2018-11-06T00:26:31.871Z,78.51
2018-11-06T00:29:00.257Z,78.94
2018-11-06T00:31:28.653Z,78.81
2018-11-06T00:33:57.131Z,78.57
2018-11-06T00:36:25.518Z,79.15
2018-11-06T00:38:53.837Z,78.93
2018-11-06T00:41:22.279Z,79.07
2018-11-06T00:43:50.645Z,79.02
2018-11-06T00:46:19.029Z,79.04
2018-11-06T00:48:47.436Z,78.73
2018-11-06T00:51:15.790Z,78.70
2018-11-06T00:53:44.200Z,78.75
2018-11-06T00:56:12.681Z,78.97
2018-11-06T00:58:41.137Z,78.57
2018-11-06T01:01:09.492Z,78.78
2018-11-06T01:03:43.178Z,79.13
2018-11-06T01:06:11.596Z,79.12
2018-11-06T01:08:39.969Z,79.14
2018-11-06T01:11:08.379Z,79.22
2018-11-06T01:13:36.709Z,79.38
2018-11-06T01:16:05.338Z,78.98
2018-11-06T01:18:33.721Z,79.68
2018-11-06T01:21:02.061Z,79.75
2018-11-06T01:23:30.466Z,79.79
2018-11-06T01:25:58.793Z,80.17
2018-11-06T01:28:27.109Z,80.11
2018-11-06T01:30:55.469Z,79.61
2018-11-06T01:33:23.908Z,80.36
2018-11-06T01:35:52.224Z,80.13
2018-11-06T01:38:20.604Z,80.10
2018-11-06T01:40:49.016Z,80.11
2018-11-06T01:43:17.313Z,80.50
2018-11-06T01:45:45.714Z,80.96
2018-11-06T01:48:14.061Z,81.10
2018-11-06T01:50:42.478Z,81.08
2018-11-06T01:53:10.898Z,81.58
2018-11-06T01:55:39.232Z,81.38
2018-11-06T01:58:07.769Z,81.37
2018-11-06T02:00:36.116Z,81.38
2018-11-06T02:03:04.612Z,81.25
2018-11-06T02:05:32.890Z,81.96
2018-11-06T02:08:01.294Z,81.55
2018-11-06T02:10:29.649Z,81.82
2018-11-06T02:12:57.943Z,81.38
2018-11-06T02:15:26.288Z,81.67
2018-11-06T02:17:54.694Z,82.08
2018-11-06T02:20:23.044Z,81.85
2018-11-06T02:22:51.504Z,81.71
2018-11-06T02:25:19.959Z,81.53
2018-11-06T02:27:48.257Z,81.56
2018-11-06T02:30:17.856Z,82.33
2018-11-06T02:32:46.938Z,81.78
2018-11-06T02:35:15.223Z,81.60
2018-11-06T02:37:43.674Z,81.13
2018-11-06T02:40:13.846Z,81.20
2018-11-06T02:42:42.599Z,81.37
2018-11-06T02:45:11.605Z,81.35
2018-11-06T02:47:40.676Z,81.82
2018-11-06T02:50:09.670Z,81.67
2018-11-06T02:52:38.007Z,81.35
2018-11-06T02:55:07.304Z,81.72
2018-11-06T02:57:35.610Z,81.48
2018-11-06T03:00:04.032Z,81.97
2018-11-06T03:02:32.510Z,81.31
2018-11-06T03:05:00.844Z,81.39
2018-11-06T03:07:29.233Z,81.46
2018-11-06T03:09:57.686Z,81.23
2018-11-06T03:12:26.029Z,81.16
2018-11-06T03:14:54.404Z,81.45
2018-11-06T03:17:22.748Z,81.37
2018-11-06T03:19:51.160Z,81.40
2018-11-06T03:22:19.470Z,81.18
2018-11-06T03:24:47.822Z,81.82
2018-11-06T03:27:16.170Z,81.21
2018-11-06T03:29:44.468Z,81.93
2018-11-06T03:32:12.804Z,82.06
2018-11-06T03:34:41.096Z,81.09
2018-11-06T03:37:09.594Z,81.63
2018-11-06T03:39:37.902Z,81.76
2018-11-06T03:42:06.264Z,82.43
2018-11-06T03:44:34.658Z,82.29
2018-11-06T03:47:03.030Z,82.51
2018-11-06T03:49:31.375Z,82.00
2018-11-06T03:51:59.752Z,82.41
2018-11-06T03:54:28.138Z,81.96
2018-11-06T03:56:56.657Z,81.78
2018-11-06T03:59:24.949Z,81.80
2018-11-06T04:01:53.313Z,82.59
2018-11-06T04:04:21.640Z,82.35
2018-11-06T04:06:50.026Z,82.43
2018-11-06T04:09:18.339Z,82.28
2018-11-06T04:11:46.637Z,82.16
2018-11-06T04:14:14.957Z,82.04
2018-11-06T04:16:43.275Z,82.27
2018-11-06T04:19:11.591Z,82.14
2018-11-06T04:21:40.659Z,82.48
2018-11-06T04:24:10.384Z,82.54
2018-11-06T04:26:39.267Z,82.43
2018-11-06T04:29:08.534Z,81.86
2018-11-06T04:31:37.610Z,81.34
2018-11-06T04:34:06.039Z,81.80
2018-11-06T04:36:34.405Z,82.00
2018-11-06T04:39:02.799Z,82.07
2018-11-06T04:41:31.100Z,81.79
2018-11-06T04:43:59.420Z,82.21
2018-11-06T04:46:27.813Z,82.16
2018-11-06T04:48:56.284Z,82.39
2018-11-06T04:51:24.638Z,81.84
2018-11-06T04:53:57.242Z,81.93
2018-11-06T04:56:25.604Z,82.16
2018-11-06T04:58:54.018Z,82.53
2018-11-06T05:01:22.522Z,82.56
2018-11-06T05:03:50.838Z,82.53
2018-11-06T05:06:19.563Z,82.69
2018-11-06T05:08:48.034Z,82.55
2018-11-06T05:11:16.332Z,82.49
2018-11-06T05:13:44.834Z,82.62
2018-11-06T05:16:13.325Z,82.82
2018-11-06T05:18:41.658Z,82.55
2018-11-06T05:21:09.962Z,82.65
2018-11-06T05:23:38.344Z,83.00
2018-11-06T05:26:06.679Z,82.24
2018-11-06T05:28:35.142Z,82.27
2018-11-06T05:31:03.680Z,82.41
2018-11-06T05:33:31.970Z,82.46
2018-11-06T05:36:00.272Z,82.48
2018-11-06T05:38:28.565Z,82.79
2018-11-06T05:40:59.856Z,82.56
2018-11-06T05:43:28.209Z,81.82
2018-11-06T05:45:56.705Z,82.87
2018-11-06T05:48:25.014Z,82.67
2018-11-06T05:50:53.385Z,82.47
2018-11-06T05:53:21.804Z,82.54
2018-11-06T05:55:50.309Z,82.55
2018-11-06T05:58:18.844Z,82.79
2018-11-06T06:00:47.595Z,82.50
2018-11-06T06:03:15.924Z,82.96
2018-11-06T06:05:44.396Z,82.93
2018-11-06T06:08:12.706Z,82.96
2018-11-06T06:10:41.083Z,83.11
2018-11-06T06:13:09.422Z,83.03
2018-11-06T06:15:37.712Z,82.70
2018-11-06T06:18:06.111Z,82.60
2018-11-06T06:20:34.487Z,82.81
2018-11-06T06:23:02.786Z,82.99
2018-11-06T06:25:31.125Z,83.17
2018-11-06T06:27:59.542Z,83.01
2018-11-06T06:30:27.840Z,82.95
2018-11-06T06:32:56.186Z,83.13
2018-11-06T06:35:24.650Z,82.89
2018-11-06T06:37:53.061Z,82.92
2018-11-06T06:40:21.430Z,82.80
2018-11-06T06:42:49.845Z,82.67
2018-11-06T06:45:19.313Z,82.46
2018-11-06T06:47:47.820Z,82.71
2018-11-06T06:50:17.490Z,82.80
2018-11-06T06:52:46.444Z,83.52
2018-11-06T06:55:15.539Z,83.35
2018-11-06T06:57:44.747Z,82.79
2018-11-06T07:00:15.475Z,83.10
2018-11-06T07:02:43.822Z,83.45
2018-11-06T07:05:13.397Z,83.81
2018-11-06T07:07:42.477Z,83.45
2018-11-06T07:10:12.658Z,83.60
2018-11-06T07:12:41.950Z,83.40
2018-11-06T07:15:12.864Z,83.72
2018-11-06T07:17:41.495Z,83.76
2018-11-06T07:20:12.365Z,83.71
2018-11-06T07:22:40.764Z,83.30
2018-11-06T07:25:11.009Z,83.37
2018-11-06T07:27:40.181Z,83.60
2018-11-06T07:30:10.493Z,83.64
2018-11-06T07:32:39.366Z,83.44
2018-11-06T07:35:08.635Z,83.54
2018-11-06T07:37:37.467Z,83.47
2018-11-06T07:40:06.741Z,82.86
2018-11-06T07:42:36.083Z,82.58
2018-11-06T07:45:04.705Z,82.26
2018-11-06T07:47:32.999Z,82.46
2018-11-06T07:50:01.421Z,82.17
2018-11-06T07:52:29.858Z,81.89
2018-11-06T07:54:58.165Z,81.53
2018-11-06T07:57:26.484Z,81.70
2018-11-06T07:59:54.872Z,81.85
2018-11-06T08:02:23.215Z,81.77
2018-11-06T08:04:51.681Z,81.95
2018-11-06T08:07:20.005Z,81.87
2018-11-06T08:09:48.365Z,81.76
2018-11-06T08:12:16.722Z,81.95
2018-11-06T08:14:45.169Z,81.98
2018-11-06T08:17:13.521Z,82.10
2018-11-06T08:19:41.931Z,82.04
2018-11-06T08:22:10.255Z,81.90
2018-11-06T08:24:38.614Z,81.97
2018-11-06T08:27:06.965Z,82.36
2018-11-06T08:29:35.313Z,82.42
2018-11-06T08:32:05.191Z,82.38
2018-11-06T08:34:33.343Z,81.87
2018-11-06T08:37:01.839Z,82.23
2018-11-06T08:39:30.181Z,81.71
2018-11-06T08:41:58.543Z,82.15
2018-11-06T08:44:26.917Z,82.07
2018-11-06T08:46:55.265Z,82.08
2018-11-06T08:49:23.597Z,82.04
2018-11-06T08:51:52.599Z,81.88
2018-11-06T08:54:21.005Z,81.81
2018-11-06T08:56:49.292Z,81.64
2018-11-06T08:59:17.581Z,81.84
2018-11-06T09:01:45.938Z,81.58
2018-11-06T09:04:14.345Z,81.93
2018-11-06T09:06:42.768Z,81.50
2018-11-06T09:09:11.402Z,81.30
2018-11-06T09:11:40.061Z,80.93
2018-11-06T09:14:08.368Z,80.20
2018-11-06T09:16:36.952Z,80.14
2018-11-06T09:19:05.527Z,79.95
2018-11-06T09:21:33.916Z,80.03
2018-11-06T09:24:02.293Z,79.98
2018-11-06T09:26:30.851Z,79.25
2018-11-06T09:28:59.186Z,79.47
2018-11-06T09:31:28.508Z,79.34
2018-11-06T09:33:57.110Z,79.00
2018-11-06T09:36:25.669Z,79.22
2018-11-06T09:38:54.007Z,78.85
2018-11-06T09:41:22.423Z,78.20
2018-11-06T09:43:50.772Z,78.35
2018-11-06T09:46:19.119Z,78.22
2018-11-06T09:48:47.444Z,77.86
2018-11-06T09:51:15.922Z,78.12
2018-11-06T09:53:44.254Z,77.71
2018-11-06T09:56:12.586Z,77.04
2018-11-06T09:58:40.913Z,76.98
2018-11-06T10:01:09.256Z,76.69
2018-11-06T10:03:37.606Z,76.29
2018-11-06T10:06:06.318Z,75.03
2018-11-06T10:08:34.635Z,75.32
2018-11-06T10:11:02.976Z,75.02
2018-11-06T10:13:31.323Z,75.06
2018-11-06T10:15:59.710Z,75.09
2018-11-06T10:18:28.034Z,75.57
2018-11-06T10:20:56.360Z,75.78
2018-11-06T10:23:24.806Z,75.51
2018-11-06T10:25:53.172Z,75.45
2018-11-06T10:28:21.568Z,75.81
2018-11-06T10:30:50.137Z,75.64
2018-11-06T10:33:25.005Z,75.54
2018-11-06T10:35:53.450Z,75.58
2018-11-06T10:38:21.735Z,75.75
2018-11-06T10:40:50.048Z,75.83
2018-11-06T10:43:18.374Z,75.57
2018-11-06T10:45:47.051Z,75.55
2018-11-06T10:48:15.363Z,75.88
2018-11-06T10:50:43.740Z,75.88
2018-11-06T10:53:12.116Z,75.39
2018-11-06T10:55:40.443Z,74.86
2018-11-06T10:58:08.837Z,75.13
2018-11-06T11:00:42.534Z,74.95
2018-11-06T11:03:16.246Z,75.07
2018-11-06T11:05:44.550Z,74.97
2018-11-06T11:08:12.857Z,74.59
2018-11-06T11:10:41.321Z,74.59
2018-11-06T11:13:09.692Z,74.39
2018-11-06T11:15:38.013Z,74.08
2018-11-06T11:18:06.364Z,73.96
2018-11-06T11:20:34.691Z,73.28
2018-11-06T11:23:03.007Z,73.21
2018-11-06T11:25:31.415Z,73.16
2018-11-06T11:27:59.716Z,72.72
2018-11-06T11:30:28.062Z,72.44
2018-11-06T11:32:56.422Z,72.14
2018-11-06T11:35:24.735Z,71.95
2018-11-06T11:37:53.164Z,72.13
2018-11-06T11:40:21.523Z,72.47
2018-11-06T11:42:49.858Z,71.92
2018-11-06T11:45:18.474Z,72.05
2018-11-06T11:47:46.897Z,72.21
2018-11-06T11:50:15.901Z,71.69
2018-11-06T11:52:44.385Z,71.62
2018-11-06T11:55:12.783Z,71.30
2018-11-06T11:57:41.325Z,70.92
2018-11-06T12:00:11.973Z,70.83
2018-11-06T12:02:40.299Z,70.92
2018-11-06T12:05:09.574Z,71.07
2018-11-06T12:07:38.024Z,70.29
2018-11-06T12:10:07.464Z,70.54
2018-11-06T12:12:35.814Z,70.27
2018-11-06T12:15:04.195Z,69.32
2018-11-06T12:17:32.580Z,70.23
2018-11-06T12:20:00.896Z,70.03
2018-11-06T12:22:29.216Z,70.08
2018-11-06T12:24:57.750Z,70.04
2018-11-06T12:27:25.944Z,70.01
2018-11-06T12:29:54.298Z,70.61
2018-11-06T12:32:22.699Z,70.42
2018-11-06T12:34:51.117Z,70.49
2018-11-06T12:37:19.437Z,70.53
2018-11-06T12:39:47.809Z,71.01
2018-11-06T12:42:16.255Z,70.55
2018-11-06T12:44:44.612Z,70.20
2018-11-06T12:47:12.938Z,70.59
2018-11-06T12:49:41.264Z,69.68
2018-11-06T12:52:09.671Z,70.20
2018-11-06T12:54:38.061Z,69.67
2018-11-06T12:57:06.390Z,70.05
2018-11-06T12:59:34.768Z,69.93
2018-11-06T13:02:03.138Z,70.11
2018-11-06T13:04:31.473Z,70.45
2018-11-06T13:06:59.765Z,70.75
2018-11-06T13:09:28.123Z,70.79
2018-11-06T13:11:56.449Z,71.48
2018-11-06T13:14:24.743Z,71.32
2018-11-06T13:16:53.135Z,71.04
2018-11-06T13:19:21.437Z,71.20
2018-11-06T13:21:49.725Z,71.65
2018-11-06T13:24:18.068Z,71.58
2018-11-06T13:26:46.596Z,71.91
2018-11-06T13:29:14.916Z,71.37
2018-11-06T13:31:43.242Z,71.35
2018-11-06T13:34:11.686Z,71.14
2018-11-06T13:36:40.022Z,71.78
2018-11-06T13:39:10.118Z,72.28
2018-11-06T13:41:38.505Z,72.60
2018-11-06T13:44:07.165Z,72.52
2018-11-06T13:46:35.381Z,72.52
2018-11-06T13:49:03.719Z,72.59
2018-11-06T13:51:32.063Z,72.95
2018-11-06T13:54:00.433Z,72.77
2018-11-06T13:56:28.868Z,73.26
2018-11-06T13:58:57.204Z,73.34
2018-11-06T14:01:25.599Z,72.51
2018-11-06T14:03:53.939Z,72.40
2018-11-06T14:06:22.371Z,72.06
2018-11-06T14:08:50.865Z,72.13
2018-11-06T14:11:19.409Z,72.37
2018-11-06T14:13:47.805Z,72.63
2018-11-06T14:16:16.164Z,72.88
2018-11-06T14:18:44.575Z,72.92
2018-11-06T14:23:40.323Z,72.35
2018-11-06T14:26:08.651Z,72.27
2018-11-06T14:28:36.985Z,72.40
2018-11-06T14:31:05.517Z,72.08
2018-11-06T14:33:33.903Z,72.38
2018-11-06T14:36:02.473Z,72.41
2018-11-06T14:38:30.821Z,72.36
2018-11-06T14:40:59.156Z,72.26
2018-11-06T14:43:27.555Z,72.78
2018-11-06T14:45:55.919Z,72.49
2018-11-06T14:48:24.462Z,72.88
2018-11-06T14:50:52.851Z,72.95
2018-11-06T14:53:21.262Z,73.02
2018-11-06T14:55:49.778Z,72.77
2018-11-06T14:58:18.074Z,73.30
2018-11-06T15:00:46.395Z,73.31
2018-11-06T15:03:14.763Z,73.32
2018-11-06T15:05:43.160Z,73.30
2018-11-06T15:08:11.420Z,72.91
2018-11-06T15:10:39.759Z,73.38
2018-11-06T15:13:08.084Z,73.34
2018-11-06T15:15:36.469Z,73.80
2018-11-06T15:18:05.226Z,73.53
2018-11-06T15:20:39.056Z,73.73
2018-11-06T15:23:07.327Z,73.91
2018-11-06T15:25:35.669Z,74.08
2018-11-06T15:28:04.013Z,74.39
2018-11-06T15:30:32.422Z,74.22
2018-11-06T15:33:00.772Z,74.24
2018-11-06T15:35:29.122Z,74.64
2018-11-06T15:37:57.461Z,74.46
2018-11-06T15:40:25.794Z,74.20
2018-11-06T15:42:54.163Z,74.76
2018-11-06T15:45:22.505Z,74.64
2018-11-06T15:47:50.950Z,74.65
2018-11-06T15:50:20.369Z,74.41
2018-11-06T15:52:49.460Z,74.56
2018-11-06T15:55:17.977Z,74.78
2018-11-06T15:57:46.505Z,74.37
2018-11-06T16:00:17.141Z,74.28
2018-11-06T16:02:45.911Z,74.72
2018-11-06T16:05:14.486Z,74.56
2018-11-06T16:07:43.002Z,74.76
2018-11-06T16:10:15.690Z,74.03
2018-11-06T16:12:44.699Z,74.58
2018-11-06T16:15:13.791Z,74.60
2018-11-06T16:17:42.094Z,74.92
2018-11-06T16:20:13.019Z,75.17
2018-11-06T16:22:41.712Z,74.50
2018-11-06T16:25:11.684Z,74.77
2018-11-06T16:27:40.485Z,75.01
2018-11-06T16:30:11.968Z,74.59
2018-11-06T16:32:40.369Z,74.09
2018-11-06T16:35:10.469Z,74.02
2018-11-06T16:37:39.263Z,74.22
2018-11-06T16:40:08.329Z,74.14
2018-11-06T16:42:36.842Z,74.74
2018-11-06T16:45:06.688Z,74.37
2018-11-06T16:47:35.099Z,74.41
2018-11-06T16:50:03.575Z,74.31
2018-11-06T16:52:31.921Z,74.62
2018-11-06T16:55:00.233Z,74.35
2018-11-06T16:57:28.830Z,74.64
2018-11-06T16:59:57.281Z,74.36
2018-11-06T17:02:25.687Z,74.23
2018-11-06T17:04:54.104Z,74.86
2018-11-06T17:07:22.523Z,74.71
2018-11-06T17:09:50.877Z,74.51
2018-11-06T17:12:19.302Z,74.64
2018-11-06T17:14:47.659Z,74.49
2018-11-06T17:17:16.111Z,74.31
2018-11-06T17:19:44.471Z,74.38
2018-11-06T17:22:12.874Z,74.75
2018-11-06T17:24:41.298Z,74.80
2018-11-06T17:27:09.792Z,74.55
2018-11-06T17:29:38.357Z,74.83
2018-11-06T17:32:06.704Z,74.73
2018-11-06T17:34:35.215Z,74.76
2018-11-06T17:37:03.692Z,74.73
2018-11-06T17:39:32.138Z,74.65
2018-11-06T17:42:00.661Z,74.45
2018-11-06T17:44:29.054Z,74.79
2018-11-06T17:46:57.515Z,75.15
2018-11-06T17:49:25.910Z,74.84
2018-11-06T17:51:54.207Z,74.74
2018-11-06T17:54:22.672Z,74.95
2018-11-06T17:56:51.061Z,74.38
2018-11-06T17:59:19.878Z,74.34
2018-11-06T18:01:48.274Z,74.41
2018-11-06T18:04:16.816Z,74.93
2018-11-06T18:06:45.130Z,74.71
2018-11-06T18:09:13.982Z,74.92
2018-11-06T18:11:42.441Z,74.81
2018-11-06T18:14:10.808Z,74.60
2018-11-06T18:16:39.178Z,74.65
2018-11-06T18:19:07.520Z,74.79
2018-11-06T18:21:35.863Z,74.50
2018-11-06T18:24:04.270Z,74.77
2018-11-06T18:26:32.591Z,74.87
2018-11-06T18:29:01.100Z,74.50
2018-11-06T18:31:29.483Z,74.82
2018-11-06T18:33:58.755Z,74.66
2018-11-06T18:36:27.240Z,74.76
2018-11-06T18:38:55.630Z,74.88
2018-11-06T18:41:23.949Z,74.82
2018-11-06T18:43:52.354Z,75.30
2018-11-06T18:46:20.773Z,74.86
2018-11-06T18:48:49.168Z,74.87
2018-11-06T18:51:17.572Z,74.87
2018-11-06T18:53:46.041Z,74.70
2018-11-06T18:56:14.389Z,75.10
2018-11-06T18:58:42.746Z,75.24
2018-11-06T19:01:11.330Z,75.32
2018-11-06T19:03:39.687Z,75.20
2018-11-06T19:06:08.083Z,75.11
2018-11-06T19:08:36.448Z,75.13
2018-11-06T19:11:04.821Z,75.46
2018-11-06T19:13:33.169Z,75.63
2018-11-06T19:16:01.539Z,75.52
2018-11-06T19:18:29.967Z,75.44
2018-11-06T19:20:58.516Z,75.11
2018-11-06T19:23:26.912Z,75.22
2018-11-06T19:25:55.287Z,75.37
2018-11-06T19:28:23.624Z,75.70
2018-11-06T19:30:52.121Z,75.68
2018-11-06T19:33:20.487Z,75.80
2018-11-06T19:35:48.870Z,75.86
2018-11-06T19:38:17.243Z,76.25
2018-11-06T19:40:45.735Z,76.02
2018-11-06T19:43:14.218Z,75.72
2018-11-06T19:45:42.606Z,76.05
2018-11-06T19:48:11.081Z,76.39
2018-11-06T19:50:39.544Z,76.00
2018-11-06T19:53:08.037Z,76.04
2018-11-06T19:55:36.429Z,76.71
2018-11-06T19:58:05.134Z,76.31
2018-11-06T20:00:33.558Z,76.21
2018-11-06T20:03:01.964Z,76.33
2018-11-06T20:05:30.560Z,75.96
2018-11-06T20:07:59.116Z,76.41
2018-11-06T20:10:27.870Z,75.86
2018-11-06T20:12:56.823Z,76.02
2018-11-06T20:15:25.255Z,75.76
2018-11-06T20:17:54.078Z,75.43
2018-11-06T20:20:24.928Z,75.84
2018-11-06T20:22:53.618Z,75.82
2018-11-06T20:25:22.458Z,75.63
2018-11-06T20:27:51.086Z,76.07
2018-11-06T20:30:21.480Z,76.58
2018-11-06T20:32:50.419Z,76.03
2018-11-06T20:35:19.232Z,75.69
2018-11-06T20:37:47.846Z,76.30
2018-11-06T20:40:19.370Z,76.26
2018-11-06T20:42:48.647Z,76.11
2018-11-06T20:45:18.539Z,76.41
2018-11-06T20:47:47.560Z,76.60
2018-11-06T20:50:18.474Z,76.42
2018-11-06T20:52:47.155Z,76.33
2018-11-06T20:55:16.472Z,76.34
2018-11-06T20:57:45.488Z,76.53
2018-11-06T21:00:20.256Z,76.56
2018-11-06T21:02:49.488Z,76.65
2018-11-06T21:05:18.362Z,76.80
2018-11-06T21:07:47.574Z,76.77
2018-11-06T21:10:17.523Z,76.84
2018-11-06T21:12:46.478Z,76.89
2018-11-06T21:15:15.074Z,77.17
2018-11-06T21:17:44.184Z,76.52
2018-11-06T21:20:13.741Z,76.95
2018-11-06T21:22:42.386Z,76.76
2018-11-06T21:25:11.921Z,76.79
2018-11-06T21:27:41.217Z,76.59
2018-11-06T21:30:11.601Z,77.06
2018-11-06T21:32:41.734Z,76.72
2018-11-06T21:35:10.643Z,76.60
2018-11-06T21:37:39.869Z,76.95
2018-11-06T21:40:12.288Z,76.97
2018-11-06T21:42:41.002Z,76.89
2018-11-06T21:45:10.658Z,77.18
2018-11-06T21:47:39.778Z,76.97
2018-11-06T21:50:10.313Z,77.06
2018-11-06T21:52:39.000Z,76.98
2018-11-06T21:55:08.867Z,76.63
2018-11-06T21:57:37.920Z,76.58
2018-11-06T22:00:09.511Z,77.17
2018-11-06T22:02:38.709Z,76.99
2018-11-06T22:05:09.426Z,77.12
2018-11-06T22:07:37.983Z,76.90
2018-11-06T22:10:07.719Z,77.19
2018-11-06T22:12:36.335Z,76.78
2018-11-06T22:15:05.172Z,77.14
2018-11-06T22:17:33.541Z,77.02
2018-11-06T22:20:01.975Z,77.57
2018-11-06T22:22:30.329Z,77.45
2018-11-06T22:24:58.983Z,77.09
2018-11-06T22:27:27.714Z,76.68
2018-11-06T22:29:56.152Z,77.12
2018-11-06T22:32:24.540Z,77.14
2018-11-06T22:34:53.145Z,77.15
2018-11-06T22:37:21.697Z,77.12
2018-11-06T22:39:50.149Z,76.82
2018-11-06T22:42:18.567Z,76.08
2018-11-06T22:44:47.363Z,76.37
2018-11-06T22:47:15.825Z,76.56
2018-11-06T22:49:44.270Z,76.27
2018-11-06T22:52:12.686Z,76.99
2018-11-06T22:54:41.228Z,76.78
2018-11-06T22:57:09.577Z,76.78
2018-11-06T22:59:37.980Z,76.75
2018-11-06T23:02:06.391Z,76.87
2018-11-06T23:04:34.811Z,77.27
2018-11-06T23:07:03.316Z,77.31
2018-11-06T23:09:31.652Z,76.96
2018-11-06T23:12:00.060Z,77.39
2018-11-06T23:14:28.410Z,77.06
2018-11-06T23:16:56.734Z,77.27
2018-11-06T23:19:25.075Z,76.68
2018-11-06T23:21:53.426Z,76.98
2018-11-06T23:24:21.803Z,77.20
2018-11-06T23:26:50.146Z,77.54
2018-11-06T23:29:18.566Z,77.19
2018-11-06T23:31:47.125Z,76.89
2018-11-06T23:34:15.405Z,77.09
2018-11-06T23:36:43.764Z,76.87
2018-11-06T23:39:12.177Z,76.71
2018-11-06T23:41:40.462Z,76.72
2018-11-06T23:44:08.794Z,76.53
2018-11-06T23:46:37.177Z,76.61
2018-11-06T23:49:05.641Z,76.54
2018-11-06T23:51:34.083Z,77.03
2018-11-06T23:54:02.430Z,76.68
2018-11-06T23:56:30.825Z,76.33
2018-11-06T23:58:59.094Z,76.79
